Kezdőlap
METAR-TAF:

METAR-TAF

Repülőterek :

Batam, Indonézia

földrajzi szélesség: 01-07-15N, földrajzi hosszúság: 104-07-07E, magasság: 38 m

Jelenlegi meteorológiai megfigyelések

A jelentés 27 perccel ezelõtt készült, 14:00 UTC
Különbözõ irányokból fújó szél 2 kt
Hőmérséklet 26°C
Páratartalom 94%
Légköri nyomás 1011 hPa
Látótávolság: 9000 m
Kevés felhő 1400 lábon

METAR: WIDD 161400Z VRB02KT 9000 FEW014 26/25 Q1011 NOSIG

Idő: 21:27 (14:27 UTC)

Előrejelzés

A jelentés 3 órával és 27 perccel ezelõtt készült, 11:00 UTC
Az előrejelzés 16-én 12 óra UTC és 17-én 12 óra UTC között érvényes
Kelet-délkeleti szél 5 kt
Látótávolság: 7000 m
Szórványos felhőzet 1400 lábon

TAF: WIDD 161100Z 1612/1712 12005KT 7000 SCT014

Meteorológiai megfigyelések és előrejelzések több, mint 4000 repülőtéren (METAR és TAF jelentéseket).

A térképen piros és sárga pontok jelzik az elérhető meteorológiai állomásokat.

Mozgassa az egeret a pont fölött, hogy megjelenjen az állomás neve.

Azután kattintson az időjárási megfigyelések és előrejelzések megtekintéséhez.

A térkép megváltoztatása: kattintson a fekete keresztel jelölt zöld gombra ráközelítéshez, a vonallal jelölt zöld gombra távolításhoz, vagy a zöld nyilakra a szomszédos térképek eléréséhez.


METAR-TAF: